Latest Weather Observations for Tibooburra Airport

IDN60801

Issued at 8:52 am EST Tuesday 26 May 2020 (issued every 10 minutes, with the page automatically refreshed every 10 minutes)

About weather observations | Map of weather stations | Latest weather observations for NSW | Other Formats
Station Details ID: 046126 Name: TIBOOBURRA AIRPORT Lat: -29.44 Lon: 142.06 Height: 176.4 m
Data from the previous 72 hours. | See also: Recent months at Tibooburra Airport
Date/Time
EST
Temp
°C
App
Temp
°C
Dew
Point
°C
Rel
Hum
%
Delta-T
°C
Wind Press
QNH
hPa
Press
MSL
hPa
Rain since
9am
mm
Dir  Spd
km/h
Gust
km/h
Spd
kts
Gust
kts
26/08:30am 8.7 5.9 3.3 69 2.3 W 7 9 4 5 1023.3 1023.0 0.0
26/08:00am 6.9 4.1 3.0 76 1.6 WSW 7 9 4 5 1023.1 1022.8 0.0
26/07:30am 5.5 2.7 3.0 84 1.0 SW 7 9 4 5 1022.9 1022.6 0.0
26/07:00am 4.9 1.7 2.8 86 0.9 WSW 9 11 5 6 1022.8 1022.5 0.0
26/06:30am 4.8 1.5 2.3 84 1.0 WSW 9 11 5 6 1022.5 1022.2 0.0
26/06:00am 5.3 1.3 2.8 84 1.0 W 13 15 7 8 1022.5 1022.2 0.0
26/05:30am 5.4 2.2 2.8 83 1.1 WSW 9 11 5 6 1021.8 1021.6 0.0
26/05:00am 5.5 2.6 2.5 81 1.2 SSW 7 9 4 5 1021.5 1021.3 0.0
26/04:30am 5.4 2.1 2.4 81 1.2 SW 9 9 5 5 1022.2 1021.9 0.0
26/04:00am 5.8 2.2 2.8 81 1.2 WSW 11 13 6 7 1022.5 1022.2 0.0
26/03:30am 5.6 1.5 2.4 80 1.3 W 13 13 7 7 1022.9 1022.6 0.0
26/03:00am 5.9 1.8 2.2 77 1.5 W 13 15 7 8 1023.1 1022.8 0.0
26/02:30am 6.1 3.1 2.0 75 1.7 WSW 7 9 4 5 1022.9 1022.6 0.0
26/02:00am 7.2 5.2 2.5 72 2.0 S 2 6 1 3 1022.6 1022.3 0.0
26/01:30am 7.1 4.2 2.6 73 1.9 S 7 9 4 5 1022.3 1022.0 0.0
26/01:00am 7.0 4.0 2.1 71 2.0 WSW 7 9 4 5 1022.5 1022.2 0.0
26/12:30am 7.3 4.3 2.2 70 2.1 S 7 9 4 5 1022.6 1022.3 0.0
26/12:00am 7.2 4.2 2.1 70 2.1 S 7 9 4 5 1022.4 1022.1 0.0
 
Date/Time
EST
Temp
°C
App
Temp
°C
Dew
Point
°C
Rel
Hum
%
Delta-T
°C
Wind Press
QNH
hPa
Press
MSL
hPa
Rain since
9am
mm
Dir  Spd
km/h
Gust
km/h
Spd
kts
Gust
kts
25/11:30pm 7.7 4.4 2.4 69 2.2 SSE 9 11 5 6 1022.0 1021.8 0.0
25/11:00pm 7.6 4.6 1.9 67 2.4 S 7 9 4 5 1022.4 1022.1 0.0
25/10:30pm 8.3 5.0 2.3 66 2.5 SSE 9 11 5 6 1022.7 1022.4 0.0
25/10:00pm 8.1 4.7 2.1 66 2.5 S 9 11 5 6 1022.9 1022.6 0.0
25/09:30pm 8.6 4.9 2.2 64 2.7 S 11 13 6 7 1022.9 1022.6 0.0
25/09:00pm 8.4 4.6 2.0 64 2.7 S 11 11 6 6 1023.1 1022.8 0.0
25/08:30pm 8.9 5.1 1.8 61 3.0 S 11 11 6 6 1023.2 1022.9 0.0
25/08:00pm 9.9 5.8 2.0 58 3.3 S 13 15 7 8 1023.1 1022.8 0.0
25/07:30pm 10.5 6.0 2.1 56 3.6 S 15 19 8 10 1022.8 1022.5 0.0
25/07:00pm 11.1 6.2 2.2 54 3.8 S 17 20 9 11 1022.5 1022.2 0.0
25/06:30pm 11.6 7.1 2.1 52 4.1 S 15 20 8 11 1022.4 1022.1 0.0
25/06:00pm 12.3 6.9 2.2 50 4.4 SSE 20 28 11 15 1022.0 1021.8 0.0
25/05:30pm 13.0 7.8 2.3 48 4.7 S 19 24 10 13 1021.6 1021.4 0.0
25/05:00pm 13.6 7.8 2.5 47 4.9 SSW 22 32 12 17 1021.6 1021.4 0.0
25/04:30pm 14.3 8.9 2.2 44 5.4 SSW 20 30 11 16 1021.2 1021.0 0.0
25/04:00pm 14.5 8.7 2.1 43 5.5 SSW 22 30 12 16 1021.3 1021.1 0.0
25/03:30pm 14.3 8.5 2.2 44 5.4 S 22 28 12 15 1021.3 1021.1 0.0
25/03:00pm 14.3 9.1 2.2 44 5.4 S 19 26 10 14 1021.4 1021.2 0.0
25/02:30pm 14.2 9.7 2.1 44 5.4 SSE 15 24 8 13 1021.4 1021.2 0.0
25/02:00pm 14.5 9.3 2.7 45 5.3 SSW 19 26 10 14 1021.6 1021.4 0.0
25/01:30pm 14.0 9.2 2.6 46 5.1 SSW 17 24 9 13 1021.9 1021.7 0.0
25/01:00pm 13.9 9.1 2.8 47 5.0 SW 17 26 9 14 1022.5 1022.2 0.0
25/12:30pm 13.4 8.0 2.6 48 4.8 SSW 20 28 11 15 1023.2 1022.9 0.0
25/12:00pm 13.1 8.4 3.2 51 4.4 WSW 17 22 9 12 1023.6 1023.3 0.0
25/11:30am 13.0 10.1 2.8 50 4.5 WSW 7 19 4 10 1024.0 1023.7 0.0
25/11:00am 12.7 9.5 3.1 52 4.3 WSW 9 17 5 9 1024.2 1023.9 0.0
25/10:30am 12.0 8.1 3.3 55 3.9 SSE 13 19 7 10 1024.1 1023.8 0.0
25/10:00am 10.9 7.1 3.7 61 3.2 SSE 13 19 7 10 1023.8 1023.5 0.0
25/09:30am 9.2 5.5 4.4 72 2.1 SSW 13 17 7 9 1023.7 1023.4 0.0
25/09:00am 8.0 4.7 4.6 79 1.5 SW 11 15 6 8 1023.5 1023.2 0.0
25/08:30am 6.8 3.9 4.6 86 1.0 SW 9 13 5 7 1023.2 1022.9 0.0
25/08:00am 5.5 2.6 4.8 95 0.3 WSW 9 11 5 6 1023.0 1022.7 0.0
25/07:30am 4.8 1.5 4.7 99 0.0 SSW 11 13 6 7 1022.8 1022.5 0.0
25/07:00am 4.8 1.1 4.4 97 0.2 SSW 13 15 7 8 1022.6 1022.3 0.0
25/06:30am 5.2 1.5 4.5 95 0.3 SSW 13 15 7 8 1022.4 1022.1 0.0
25/06:00am 5.4 2.1 4.5 94 0.4 SSW 11 15 6 8 1021.9 1021.7 0.0
25/05:30am 5.7 2.0 4.5 92 0.5 SSW 13 15 7 8 1021.7 1021.5 0.0
25/05:00am 6.2 2.2 4.7 90 0.7 SSW 15 17 8 9 1021.5 1021.3 0.0
25/04:30am 6.4 2.7 4.4 87 0.9 SSW 13 17 7 9 1021.7 1021.5 0.0
25/04:00am 6.9 2.1 4.7 86 1.0 SSW 19 20 10 11 1021.8 1021.6 0.0
25/03:30am 7.2 2.8 4.9 85 1.0 SSW 17 20 9 11 1021.6 1021.4 0.0
25/03:00am 7.7 3.3 4.7 81 1.3 S 17 20 9 11 1021.5 1021.3 0.0
25/02:30am 7.6 3.6 4.7 82 1.3 SSW 15 17 8 9 1021.9 1021.7 0.0
25/02:00am 7.7 4.0 4.3 79 1.5 S 13 15 7 8 1022.3 1022.0 0.0
25/01:30am 8.2 4.8 4.0 75 1.8 S 11 13 6 7 1022.0 1021.8 0.0
25/01:00am 9.3 5.5 4.1 70 2.3 S 13 17 7 9 1022.0 1021.8 0.0
25/12:30am 10.3 5.5 4.5 67 2.6 SSE 19 26 10 14 1021.9 1021.7 0.0
25/12:00am 10.1 5.7 4.5 68 2.5 S 17 20 9 11 1022.6 1022.3 0.0
 
Date/Time
EST
Temp
°C
App
Temp
°C
Dew
Point
°C
Rel
Hum
%
Delta-T
°C
Wind Press
QNH
hPa
Press
MSL
hPa
Rain since
9am
mm
Dir  Spd
km/h
Gust
km/h
Spd
kts
Gust
kts
24/11:30pm 9.5 5.1 4.7 72 2.2 S 17 24 9 13 1022.7 1022.4 0.0
24/11:00pm 9.0 5.2 4.0 71 2.2 SSW 13 15 7 8 1022.5 1022.2 0.0
24/10:30pm 9.3 5.5 3.9 69 2.4 S 13 15 7 8 1022.5 1022.2 0.0
24/10:00pm 10.1 5.6 4.3 67 2.6 S 17 20 9 11 1022.8 1022.5 0.0
24/09:30pm 10.1 5.3 4.7 69 2.4 SSW 19 24 10 13 1022.6 1022.3 0.0
24/09:00pm 10.2 5.8 4.8 69 2.4 SSW 17 22 9 12 1022.5 1022.2 0.0
24/08:30pm 10.8 5.9 4.9 67 2.7 SSW 20 26 11 14 1022.6 1022.3 0.0
24/08:00pm 11.3 6.6 5.2 66 2.8 SSW 19 24 10 13 1022.2 1021.9 0.0
24/07:30pm 11.9 6.7 5.3 64 3.1 S 22 30 12 16 1021.8 1021.6 0.0
24/07:00pm 12.5 7.0 5.7 63 3.2 S 24 33 13 18 1021.6 1021.4 0.0
24/06:30pm 13.3 6.1 5.9 61 3.5 S 33 41 18 22 1021.3 1021.1 0.0
24/06:00pm 14.0 7.8 6.1 59 3.8 SSW 28 35 15 19 1021.1 1020.9 0.0
24/05:30pm 14.4 8.3 6.5 59 3.8 SSW 28 37 15 20 1020.9 1020.7 0.0
24/05:00pm 14.9 10.0 7.0 59 3.9 SSW 22 28 12 15 1020.6 1020.4 0.0
24/04:30pm 15.0 9.3 6.8 58 4.0 S 26 33 14 18 1020.5 1020.3 0.0
24/04:00pm 15.0 9.8 7.1 59 3.9 SSW 24 32 13 17 1020.5 1020.3 0.0
24/03:30pm 15.3 9.4 7.6 60 3.9 S 28 35 15 19 1020.3 1020.1 0.0
24/03:00pm 14.8 8.2 7.8 63 3.5 S 32 41 17 22 1020.3 1020.1 0.0
24/02:30pm 14.9 8.9 7.2 60 3.8 S 28 35 15 19 1020.2 1020.0 0.0
24/02:00pm 15.2 9.3 7.7 61 3.8 S 28 35 15 19 1020.3 1020.1 0.0
24/01:30pm 15.0 8.5 8.0 63 3.5 S 32 39 17 21 1020.3 1020.1 0.0
24/01:00pm 15.4 9.4 6.9 57 4.2 S 28 33 15 18 1020.4 1020.2 0.0
24/12:30pm 14.9 8.8 8.2 64 3.4 S 30 37 16 20 1020.7 1020.5 0.0
24/12:00pm 15.3 9.6 8.5 64 3.5 S 28 35 15 19 1021.1 1020.9 0.0
24/11:30am 14.1 8.1 8.7 70 2.7 S 30 35 16 19 1021.5 1021.3 0.0
24/11:00am 14.3 9.0 9.7 74 2.4 S 28 35 15 19 1021.7 1021.5 0.0
24/10:30am 14.0 8.9 10.6 80 1.8 S 28 35 15 19 1021.9 1021.7 0.0
24/10:00am 13.2 7.8 10.9 86 1.2 S 30 41 16 22 1021.8 1021.6 0.0
24/09:30am 12.9 8.6 12.1 95 0.4 S 26 32 14 17 1021.7 1021.5 0.0
24/09:00am 11.4 7.6 11.2 99 0.1 S 22 28 12 15 1021.5 1021.3 0.0
24/08:30am 10.6 7.6 10.6 100 0.0 SSW 17 24 9 13 1021.4 1021.2 0.0
24/08:00am 9.9 6.3 9.9 100 0.0 SSW 19 24 10 13 1021.1 1020.9 0.0
24/07:30am 9.5 6.6 9.5 100 0.0 SW 15 20 8 11 1021.0 1020.8 0.0
24/07:00am 9.5 6.2 9.5 100 0.0 SSW 17 20 9 11 1020.7 1020.5 0.0
24/06:30am 9.5 5.8 9.5 100 0.0 SSW 19 24 10 13 1020.6 1020.4 0.0
24/06:00am 8.7 5.2 8.7 100 0.0 SW 17 22 9 12 1020.3 1020.1 0.0
24/05:30am 8.5 5.3 8.5 100 0.0 SW 15 17 8 9 1019.9 1019.7 0.0
24/05:00am 8.8 5.3 8.8 100 0.0 SW 17 19 9 10 1019.8 1019.6 0.0
24/04:30am 8.8 5.3 8.8 100 0.0 SW 17 20 9 11 1019.8 1019.6 0.0
24/04:00am 9.1 5.7 9.1 100 0.0 SW 17 20 9 11 1019.5 1019.3 0.0
24/03:30am 8.9 5.4 8.9 100 0.0 SW 17 20 9 11 1019.3 1019.0 0.0
24/03:00am 8.8 6.1 8.8 100 0.0 SW 13 15 7 8 1019.1 1018.8 0.0
24/02:30am 9.3 6.7 9.2 99 0.0 SSW 13 17 7 9 1019.1 1018.8 0.0
24/02:00am 9.4 6.4 9.4 100 0.0 SW 15 17 8 9 1019.1 1018.8 0.0
24/01:30am 9.5 6.9 9.4 99 0.1 SW 13 15 7 8 1019.0 1018.7 0.0
24/01:00am 10.7 8.0 10.5 99 0.1 SSW 15 19 8 10 1019.3 1019.0 0.0
24/12:30am 10.7 7.7 10.5 99 0.1 SSW 17 20 9 11 1019.4 1019.2 0.0
24/12:00am 11.0 8.5 11.0 100 0.0 SW 15 17 8 9 1019.5 1019.3 0.0
 
Date/Time
EST
Temp
°C
App
Temp
°C
Dew
Point
°C
Rel
Hum
%
Delta-T
°C
Wind Press
QNH
hPa
Press
MSL
hPa
Rain since
9am
mm
Dir  Spd
km/h
Gust
km/h
Spd
kts
Gust
kts
23/11:30pm 11.5 9.1 11.3 99 0.1 SW 15 17 8 9 1019.5 1019.3 0.0
23/11:00pm 12.1 9.8 11.9 99 0.1 SW 15 19 8 10 1019.5 1019.3 0.0
23/10:30pm 11.8 9.8 11.6 99 0.1 SW 13 17 7 9 1019.5 1019.3 0.0
23/10:00pm 11.6 9.6 11.4 99 0.1 SW 13 15 7 8 1019.3 1019.0 0.0
23/09:30pm 11.9 10.2 11.3 96 0.3 SW 11 13 6 7 1019.2 1018.9 0.0
23/09:00pm 12.2 10.4 10.8 91 0.7 WSW 11 11 6 6 1019.2 1018.9 0.0
23/08:30pm 13.0 10.8 10.7 86 1.2 SSW 13 17 7 9 1019.0 1018.7 0.0
23/08:00pm 13.5 10.0 10.3 81 1.7 SW 19 22 10 12 1018.8 1018.5 0.0
23/07:30pm 14.4 10.1 9.4 72 2.6 SSW 22 26 12 14 1018.7 1018.4 0.0
23/07:00pm 14.7 11.2 8.6 67 3.1 SW 17 22 9 12 1018.4 1018.1 0.0
23/06:30pm 14.9 11.0 8.6 66 3.2 SW 19 22 10 12 1018.1 1017.8 0.0
23/06:00pm 15.1 11.5 8.3 64 3.4 SW 17 20 9 11 1017.8 1017.5 0.0
23/05:30pm 15.4 11.1 7.9 61 3.8 SSW 20 26 11 14 1017.6 1017.3 0.0
23/05:00pm 15.7 10.9 7.2 57 4.2 SSW 22 28 12 15 1017.3 1017.0 0.0
23/04:30pm 15.9 10.2 6.9 55 4.5 SSW 26 33 14 18 1017.4 1017.1 0.0
23/04:00pm 16.3 11.2 7.5 56 4.4 SSW 24 32 13 17 1017.4 1017.1 0.0
23/03:30pm 16.3 11.3 6.4 52 4.9 S 22 33 12 18 1017.3 1017.0 0.0
23/03:00pm 16.4 11.9 7.1 54 4.6 S 20 30 11 16 1017.5 1017.2 0.0
23/02:30pm 16.8 11.5 6.9 52 4.9 SSW 24 32 13 17 1017.6 1017.3 0.0
23/02:00pm 16.2 10.7 7.4 56 4.4 SSW 26 32 14 17 1018.0 1017.7 0.0
23/01:30pm 16.0 11.7 7.7 58 4.2 SSW 20 32 11 17 1018.4 1018.1 0.0
23/01:00pm 15.2 11.3 9.3 68 3.1 SSW 20 32 11 17 1018.9 1018.6 0.0
23/12:30pm 14.7 11.2 10.9 78 2.0 WSW 20 26 11 14 1019.4 1019.2 0.0
23/12:00pm 13.4 10.5 11.1 86 1.2 SW 17 24 9 13 1019.8 1019.6 0.0
23/11:30am 13.6 10.3 9.6 77 2.1 SSW 17 26 9 14 1020.2 1020.0 0.0
23/11:00am 13.6 10.4 10.0 79 1.9 SW 17 20 9 11 1020.6 1020.4 0.0
23/10:30am 12.6 9.2 10.7 88 1.0 SW 19 22 10 12 1020.9 1020.7 0.0
23/10:00am 12.3 9.1 11.2 93 0.6 WSW 19 20 10 11 1020.8 1020.6 0.0
23/09:30am 12.1 9.0 10.3 89 0.9 SW 17 20 9 11 1020.7 1020.5 0.0
23/09:00am 11.5 8.3 9.8 89 0.9 WSW 17 20 9 11 1020.4 1020.2 0.0

Other formats

Comma delimited format used in spreadsheet applications
http://www.bom.gov.au/fwo/IDN60801/IDN60801.95485.axf

JavaScript Object Notation format (JSON) in row-major order
http://www.bom.gov.au/fwo/IDN60801/IDN60801.95485.json

Data quality

Most of these data are generated automatically and are frequently updated. Quality checks on data are not normally performed. It is possible for incorrect values to appear. Refer to information at About Latest Weather Observations and please check the disclaimer before using these data.